createdAt,value
2019-01-25T00:01:15.704Z,75.27
2019-01-25T00:03:43.660Z,75.07
2019-01-25T00:06:11.305Z,75.22
2019-01-25T00:08:39.269Z,75.83
2019-01-25T00:11:07.242Z,75.91
2019-01-25T00:13:35.214Z,76.04
2019-01-25T00:16:03.187Z,77.03
2019-01-25T00:18:31.151Z,76.87
2019-01-25T00:20:59.127Z,76.78
2019-01-25T00:23:27.091Z,77.29
2019-01-25T00:25:55.060Z,76.93
2019-01-25T00:28:22.689Z,77.00
2019-01-25T00:30:50.585Z,76.77
2019-01-25T00:33:18.558Z,76.75
2019-01-25T00:35:46.531Z,76.35
2019-01-25T00:38:14.166Z,76.65
2019-01-25T00:40:42.057Z,76.38
2019-01-25T00:43:10.127Z,76.82
2019-01-25T00:45:37.768Z,76.73
2019-01-25T00:48:05.402Z,77.45
2019-01-25T00:50:33.325Z,77.41
2019-01-25T00:53:01.291Z,77.45
2019-01-25T00:55:29.263Z,77.05
2019-01-25T00:57:56.884Z,76.99
2019-01-25T01:00:24.530Z,77.36
2019-01-25T01:02:52.154Z,77.72
2019-01-25T01:05:20.115Z,77.55
2019-01-25T01:07:48.086Z,77.30
2019-01-25T01:10:16.058Z,76.99
2019-01-25T01:12:43.692Z,77.15
2019-01-25T01:15:11.320Z,77.19
2019-01-25T01:17:38.958Z,77.23
2019-01-25T01:20:06.608Z,77.02
2019-01-25T01:22:34.572Z,77.34
2019-01-25T01:25:02.219Z,77.51
2019-01-25T01:27:30.102Z,77.83
2019-01-25T01:29:57.742Z,77.79
2019-01-25T01:32:25.632Z,78.02
2019-01-25T01:34:53.274Z,78.37
2019-01-25T01:37:20.902Z,77.75
2019-01-25T01:39:48.542Z,77.90
2019-01-25T01:42:16.531Z,77.55
2019-01-25T01:44:44.457Z,77.60
2019-01-25T01:47:12.422Z,78.49
2019-01-25T01:49:40.058Z,78.09
2019-01-25T01:52:07.704Z,78.59
2019-01-25T01:54:35.342Z,78.46
2019-01-25T01:57:02.987Z,78.27
2019-01-25T01:59:30.624Z,77.91
2019-01-25T02:01:58.274Z,77.43
2019-01-25T02:04:26.163Z,78.18
2019-01-25T02:06:54.136Z,78.02
2019-01-25T02:09:22.099Z,78.04
2019-01-25T02:11:50.066Z,77.84
2019-01-25T02:14:18.053Z,77.63
2019-01-25T02:16:46.012Z,77.59
2019-01-25T02:19:13.980Z,77.60
2019-01-25T02:21:41.954Z,77.63
2019-01-25T02:24:09.919Z,77.69
2019-01-25T02:26:37.886Z,78.06
2019-01-25T02:29:05.877Z,78.09
2019-01-25T02:31:33.828Z,77.99
2019-01-25T02:34:01.479Z,77.92
2019-01-25T02:36:29.462Z,78.04
2019-01-25T02:38:57.091Z,78.09
2019-01-25T02:41:24.743Z,78.03
2019-01-25T02:43:52.372Z,78.29
2019-01-25T02:46:20.008Z,78.63
2019-01-25T02:48:47.982Z,78.75
2019-01-25T02:51:15.620Z,78.66
2019-01-25T02:53:43.611Z,78.34
2019-01-25T02:56:11.574Z,78.24
2019-01-25T02:58:39.540Z,77.87
2019-01-25T03:01:07.178Z,77.94
2019-01-25T03:03:35.080Z,78.18
2019-01-25T03:06:02.714Z,78.05
2019-01-25T03:08:30.343Z,78.18
2019-01-25T03:10:58.271Z,78.78
2019-01-25T03:13:26.263Z,78.67
2019-01-25T03:15:54.208Z,79.12
2019-01-25T03:18:22.177Z,79.02
2019-01-25T03:20:50.200Z,78.98
2019-01-25T03:23:18.118Z,79.11
2019-01-25T03:25:46.082Z,78.58
2019-01-25T03:28:14.057Z,78.59
2019-01-25T03:30:41.707Z,78.99
2019-01-25T03:33:09.730Z,79.48
2019-01-25T03:35:37.673Z,78.99
2019-01-25T03:38:05.637Z,79.23
2019-01-25T03:40:33.262Z,78.36
2019-01-25T03:43:01.158Z,78.57
2019-01-25T03:45:29.133Z,78.42
2019-01-25T03:47:57.113Z,78.48
2019-01-25T03:50:25.068Z,78.34
2019-01-25T03:52:53.032Z,78.50
2019-01-25T03:55:21.011Z,78.50
2019-01-25T03:57:48.971Z,78.58
2019-01-25T04:00:16.954Z,78.99
2019-01-25T04:02:44.918Z,79.06
2019-01-25T04:05:12.886Z,78.76
2019-01-25T04:07:40.857Z,78.54
2019-01-25T04:10:08.484Z,78.97
2019-01-25T04:12:36.400Z,79.34
2019-01-25T04:15:04.354Z,79.54
2019-01-25T04:17:32.322Z,79.62
2019-01-25T04:20:00.309Z,80.02
2019-01-25T04:22:27.950Z,79.36
2019-01-25T04:24:55.580Z,79.75
2019-01-25T04:27:23.222Z,79.69
2019-01-25T04:29:50.855Z,79.19
2019-01-25T04:32:18.824Z,79.11
2019-01-25T04:34:46.794Z,80.17
2019-01-25T04:37:14.746Z,79.77
2019-01-25T04:39:42.720Z,79.60
2019-01-25T04:42:10.357Z,79.93
2019-01-25T04:44:38.241Z,80.03
2019-01-25T04:47:06.218Z,80.77
2019-01-25T04:49:34.138Z,80.96
2019-01-25T04:52:02.054Z,81.29
2019-01-25T04:54:30.022Z,81.12
2019-01-25T04:56:58.019Z,80.77
2019-01-25T04:59:27.192Z,81.10
2019-01-25T05:01:55.182Z,81.18
2019-01-25T05:04:23.133Z,81.19
2019-01-25T05:06:51.099Z,81.47
2019-01-25T05:09:18.734Z,81.55
2019-01-25T05:11:46.370Z,81.39
2019-01-25T05:14:14.309Z,81.60
2019-01-25T05:16:41.945Z,81.90
2019-01-25T05:19:09.571Z,81.94
2019-01-25T05:21:37.485Z,81.58
2019-01-25T05:24:06.391Z,81.66
2019-01-25T05:26:34.025Z,81.66
2019-01-25T05:29:01.657Z,81.42
2019-01-25T05:31:29.566Z,81.41
2019-01-25T05:33:59.191Z,81.65
2019-01-25T05:36:27.242Z,81.39
2019-01-25T05:38:55.212Z,81.39
2019-01-25T05:41:28.283Z,81.36
2019-01-25T05:43:52.791Z,81.45
2019-01-25T05:46:20.423Z,81.56
2019-01-25T05:48:48.323Z,81.23
2019-01-25T05:51:16.292Z,81.30
2019-01-25T05:53:45.902Z,81.45
2019-01-25T05:56:13.535Z,81.73
2019-01-25T05:58:41.166Z,81.44
2019-01-25T06:01:09.087Z,81.51
2019-01-25T06:03:37.062Z,81.10
2019-01-25T06:06:05.025Z,80.97
2019-01-25T06:08:33.651Z,80.26
2019-01-25T06:11:01.595Z,80.50
2019-01-25T06:13:29.552Z,80.25
2019-01-25T06:15:57.519Z,80.63
2019-01-25T06:18:25.492Z,80.91
2019-01-25T06:20:53.591Z,80.39
2019-01-25T06:23:21.535Z,80.23
2019-01-25T06:25:50.133Z,79.80
2019-01-25T06:28:18.093Z,79.88
2019-01-25T06:30:46.558Z,79.59
2019-01-25T06:33:14.547Z,79.59
2019-01-25T06:35:42.527Z,79.77
2019-01-25T06:38:10.161Z,79.85
2019-01-25T06:40:38.140Z,80.41
2019-01-25T06:43:06.110Z,80.24
2019-01-25T06:45:34.080Z,80.51
2019-01-25T06:48:02.052Z,80.37
2019-01-25T06:50:29.689Z,80.55
2019-01-25T06:52:57.684Z,80.58
2019-01-25T06:55:25.673Z,80.37
2019-01-25T06:57:59.770Z,80.58
2019-01-25T07:00:28.340Z,80.89
2019-01-25T07:02:56.325Z,81.23
2019-01-25T07:05:23.949Z,81.37
2019-01-25T07:07:51.850Z,81.45
2019-01-25T07:10:19.816Z,81.70
2019-01-25T07:12:47.888Z,81.53
2019-01-25T07:15:17.979Z,81.55
2019-01-25T07:17:45.610Z,81.56
2019-01-25T07:20:13.541Z,81.77
2019-01-25T07:22:41.180Z,81.85
2019-01-25T07:25:09.170Z,81.88
2019-01-25T07:27:36.824Z,81.97
2019-01-25T07:30:05.636Z,81.87
2019-01-25T07:32:33.264Z,81.54
2019-01-25T07:35:00.986Z,81.55
2019-01-25T07:37:28.945Z,81.53
2019-01-25T07:39:56.569Z,81.73
2019-01-25T07:42:24.293Z,81.82
2019-01-25T07:44:51.902Z,81.93
2019-01-25T07:47:19.874Z,82.00
2019-01-25T07:49:47.506Z,81.92
2019-01-25T07:52:15.402Z,82.05
2019-01-25T07:54:43.389Z,81.24
2019-01-25T07:57:11.018Z,81.44
2019-01-25T07:59:39.146Z,81.15
2019-01-25T08:02:07.076Z,80.90
2019-01-25T08:04:34.726Z,80.73
2019-01-25T08:07:02.516Z,80.88
2019-01-25T08:09:30.159Z,80.73
2019-01-25T08:11:58.131Z,80.64
2019-01-25T08:14:26.204Z,80.42
2019-01-25T08:16:54.202Z,80.40
2019-01-25T08:19:22.151Z,80.78
2019-01-25T08:21:50.120Z,80.14
2019-01-25T08:24:18.142Z,79.68
2019-01-25T08:26:45.813Z,79.42
2019-01-25T08:29:13.755Z,78.89
2019-01-25T08:31:41.690Z,78.68
2019-01-25T08:34:09.326Z,78.76
2019-01-25T08:36:36.968Z,78.45
2019-01-25T08:39:06.031Z,79.33
2019-01-25T08:41:33.644Z,78.82
2019-01-25T08:44:01.659Z,79.30
2019-01-25T08:46:29.285Z,79.43
2019-01-25T08:48:57.163Z,79.39
2019-01-25T08:51:25.162Z,79.13
2019-01-25T08:53:53.170Z,78.54
2019-01-25T08:56:21.069Z,78.58
2019-01-25T08:58:48.733Z,78.95
2019-01-25T09:01:16.340Z,78.92
2019-01-25T09:03:44.270Z,78.29
2019-01-25T09:06:11.895Z,77.83
2019-01-25T09:08:39.533Z,77.91
2019-01-25T09:11:07.453Z,77.70
2019-01-25T09:13:35.086Z,78.12
2019-01-25T09:16:02.982Z,77.59
2019-01-25T09:18:30.623Z,76.58
2019-01-25T09:20:58.721Z,76.03
2019-01-25T09:23:26.692Z,76.26
2019-01-25T09:26:00.909Z,75.61
2019-01-25T09:28:24.011Z,76.21
2019-01-25T09:30:51.934Z,76.39
2019-01-25T09:33:19.575Z,75.96
2019-01-25T09:35:47.214Z,75.32
2019-01-25T09:38:15.133Z,75.05
2019-01-25T09:40:43.092Z,75.27
2019-01-25T09:43:11.065Z,75.34
2019-01-25T09:45:39.041Z,75.53
2019-01-25T09:48:07.114Z,75.00
2019-01-25T09:50:34.757Z,75.39
2019-01-25T09:53:02.846Z,74.58
2019-01-25T09:55:30.816Z,73.00
2019-01-25T09:57:58.776Z,71.65
2019-01-25T10:00:26.741Z,71.89
2019-01-25T10:02:54.713Z,72.58
2019-01-25T10:05:22.441Z,72.62
2019-01-25T10:07:50.067Z,72.13
2019-01-25T10:10:18.109Z,72.03
2019-01-25T10:12:46.109Z,71.57
2019-01-25T10:15:13.754Z,71.78
2019-01-25T10:17:41.390Z,70.59
2019-01-25T10:20:09.416Z,71.47
2019-01-25T10:22:37.013Z,71.21
2019-01-25T10:25:04.695Z,70.39
2019-01-25T10:27:32.343Z,72.26
2019-01-25T10:30:00.395Z,72.75
2019-01-25T10:32:28.621Z,71.16
2019-01-25T10:34:56.298Z,70.78
2019-01-25T10:37:24.239Z,69.85
2019-01-25T10:39:52.213Z,69.79
2019-01-25T10:42:19.848Z,68.74
2019-01-25T10:44:47.492Z,68.53
2019-01-25T10:47:15.135Z,68.77
2019-01-25T10:49:42.785Z,70.06
2019-01-25T10:52:10.730Z,70.23
2019-01-25T10:54:38.698Z,70.50
2019-01-25T10:57:06.670Z,69.88
2019-01-25T10:59:34.638Z,69.78
2019-01-25T11:02:02.271Z,69.41
2019-01-25T11:04:29.939Z,70.25
2019-01-25T11:06:57.833Z,70.33
2019-01-25T11:09:25.807Z,69.52
2019-01-25T11:11:53.782Z,70.08
2019-01-25T11:14:21.441Z,69.79
2019-01-25T11:16:49.404Z,69.08
2019-01-25T11:19:17.390Z,68.83
2019-01-25T11:21:45.006Z,69.23
2019-01-25T11:24:12.659Z,70.09
2019-01-25T11:26:40.306Z,68.93
2019-01-25T11:29:08.228Z,68.25
2019-01-25T11:31:35.878Z,69.06
2019-01-25T11:34:03.515Z,68.65
2019-01-25T11:36:31.522Z,68.53
2019-01-25T11:38:59.170Z,67.70
2019-01-25T11:41:27.146Z,67.43
2019-01-25T11:43:55.126Z,66.95
2019-01-25T11:46:23.092Z,66.88
2019-01-25T11:48:51.075Z,67.00
2019-01-25T11:51:19.925Z,66.96
2019-01-25T11:53:47.645Z,66.45
2019-01-25T11:56:15.311Z,65.84
2019-01-25T11:58:42.949Z,65.96
2019-01-25T12:01:10.904Z,64.90
2019-01-25T12:03:38.523Z,65.27
2019-01-25T12:06:06.185Z,65.37
2019-01-25T12:08:34.111Z,65.32
2019-01-25T12:11:02.085Z,65.89
2019-01-25T12:13:29.732Z,64.79
2019-01-25T12:15:57.373Z,64.83
2019-01-25T12:18:25.383Z,65.24
2019-01-25T12:20:52.983Z,65.83
2019-01-25T12:23:20.616Z,65.58
2019-01-25T12:25:48.551Z,65.68
2019-01-25T12:28:16.527Z,65.24
2019-01-25T12:30:44.526Z,65.61
2019-01-25T12:33:12.139Z,64.69
2019-01-25T12:35:39.757Z,64.66
2019-01-25T12:38:07.714Z,65.02
2019-01-25T12:40:35.362Z,63.82
2019-01-25T12:43:03.322Z,63.32
2019-01-25T12:45:31.326Z,63.84
2019-01-25T12:47:59.262Z,64.13
2019-01-25T12:50:27.228Z,63.97
2019-01-25T12:52:55.196Z,63.95
2019-01-25T12:55:23.999Z,63.76
2019-01-25T12:57:51.956Z,63.57
2019-01-25T13:00:23.687Z,63.94
2019-01-25T13:02:51.559Z,62.95
2019-01-25T13:05:19.467Z,62.96
2019-01-25T13:07:47.083Z,63.33
2019-01-25T13:10:15.089Z,63.13
2019-01-25T13:12:42.719Z,62.38
2019-01-25T13:15:10.742Z,62.70
2019-01-25T13:17:38.712Z,62.95
2019-01-25T13:20:06.365Z,62.95
2019-01-25T13:22:34.317Z,64.49
2019-01-25T13:25:03.925Z,63.98
2019-01-25T13:27:31.572Z,63.34
2019-01-25T13:29:59.281Z,63.53
2019-01-25T13:32:27.166Z,63.29
2019-01-25T13:34:55.192Z,62.80
2019-01-25T13:37:23.244Z,61.85
2019-01-25T13:39:51.125Z,63.55
2019-01-25T13:42:18.779Z,63.23
2019-01-25T13:44:46.754Z,63.03
2019-01-25T13:47:14.731Z,63.71
2019-01-25T13:49:42.703Z,63.35
2019-01-25T13:52:10.667Z,62.06
2019-01-25T13:54:38.427Z,62.49
2019-01-25T13:57:06.071Z,62.63
2019-01-25T13:59:33.952Z,62.55
2019-01-25T14:02:01.612Z,61.39
2019-01-25T14:04:29.595Z,61.49
2019-01-25T14:06:57.235Z,61.62
2019-01-25T14:09:24.870Z,61.53
2019-01-25T14:11:52.563Z,61.44
2019-01-25T14:14:20.570Z,61.96
2019-01-25T14:16:48.211Z,62.25
2019-01-25T14:19:15.845Z,61.07
2019-01-25T14:21:43.774Z,61.57
2019-01-25T14:24:11.396Z,61.88
2019-01-25T14:26:39.388Z,61.05
2019-01-25T14:29:07.031Z,61.89
2019-01-25T14:31:35.004Z,61.54
2019-01-25T14:34:02.642Z,61.47
2019-01-25T14:36:30.281Z,61.65
2019-01-25T14:38:58.199Z,61.96
2019-01-25T14:41:26.178Z,62.86
2019-01-25T14:43:54.703Z,62.64
2019-01-25T14:46:22.514Z,63.13
2019-01-25T14:48:50.477Z,63.69
2019-01-25T14:51:18.453Z,63.73
2019-01-25T14:53:50.800Z,64.09
2019-01-25T14:56:16.033Z,64.69
2019-01-25T14:58:43.675Z,64.48
2019-01-25T15:01:11.664Z,64.71
2019-01-25T15:03:39.648Z,64.72
2019-01-25T15:06:07.291Z,65.01
2019-01-25T15:08:35.265Z,65.33
2019-01-25T15:11:03.238Z,64.98
2019-01-25T15:13:31.223Z,64.96
2019-01-25T15:15:59.179Z,65.18
2019-01-25T15:18:26.840Z,65.47
2019-01-25T15:20:54.815Z,65.45
2019-01-25T15:23:22.785Z,65.88
2019-01-25T15:25:50.741Z,65.80
2019-01-25T15:28:18.718Z,65.85
2019-01-25T15:30:46.694Z,65.90
2019-01-25T15:33:14.328Z,66.30
2019-01-25T15:35:41.962Z,66.82
2019-01-25T15:38:09.876Z,66.73
2019-01-25T15:40:37.503Z,66.77
2019-01-25T15:43:05.142Z,66.46
2019-01-25T15:45:32.777Z,65.38
2019-01-25T15:48:00.730Z,65.65
2019-01-25T15:50:28.699Z,65.60
2019-01-25T15:52:56.669Z,65.85
2019-01-25T15:55:24.644Z,66.11
2019-01-25T15:57:52.283Z,66.26
2019-01-25T16:00:19.932Z,65.93
2019-01-25T16:02:47.560Z,65.60
2019-01-25T16:05:15.492Z,65.91
2019-01-25T16:07:43.462Z,65.72
2019-01-25T16:10:11.432Z,65.90
2019-01-25T16:12:39.073Z,64.54
2019-01-25T16:15:06.963Z,63.95
2019-01-25T16:17:34.608Z,63.45
2019-01-25T16:20:03.463Z,62.60
2019-01-25T16:22:31.490Z,63.32
2019-01-25T16:24:59.129Z,63.49
2019-01-25T16:27:27.115Z,63.78
2019-01-25T16:29:55.083Z,64.31
2019-01-25T16:32:23.059Z,64.50
2019-01-25T16:34:51.025Z,62.85
2019-01-25T16:37:18.677Z,61.81
2019-01-25T16:39:46.550Z,60.59
2019-01-25T16:42:14.200Z,62.83
2019-01-25T16:44:42.084Z,63.58
2019-01-25T16:47:10.057Z,63.80
2019-01-25T16:49:37.692Z,63.77
2019-01-25T16:52:05.339Z,63.78
2019-01-25T16:54:33.257Z,64.12
2019-01-25T16:57:01.216Z,62.21
2019-01-25T16:59:28.852Z,63.51
2019-01-25T17:01:56.489Z,62.77
2019-01-25T17:04:24.126Z,63.58
2019-01-25T17:06:51.763Z,63.57
2019-01-25T17:09:19.407Z,64.39
2019-01-25T17:11:47.033Z,64.98
2019-01-25T17:14:14.953Z,64.82
2019-01-25T17:16:42.578Z,63.07
2019-01-25T17:19:10.224Z,64.43
2019-01-25T17:21:37.873Z,65.06
2019-01-25T17:24:05.816Z,65.49
2019-01-25T17:26:33.781Z,65.84
2019-01-25T17:29:01.411Z,65.52
2019-01-25T17:31:29.307Z,64.60
2019-01-25T17:33:56.998Z,65.85
2019-01-25T17:36:24.942Z,66.01
2019-01-25T17:38:52.914Z,65.71
2019-01-25T17:41:20.880Z,64.76
2019-01-25T17:43:48.851Z,65.49
2019-01-25T17:46:16.816Z,65.77
2019-01-25T17:48:44.788Z,65.31
2019-01-25T17:51:12.755Z,65.13
2019-01-25T17:53:40.404Z,65.30
2019-01-25T17:56:08.054Z,64.89
2019-01-25T17:58:35.954Z,65.91
2019-01-25T18:01:03.578Z,65.90
2019-01-25T18:03:31.581Z,65.64
2019-01-25T18:05:59.551Z,65.70
2019-01-25T18:08:27.200Z,65.00
2019-01-25T18:10:54.837Z,64.76
2019-01-25T18:13:22.845Z,64.97
2019-01-25T18:15:50.833Z,64.87
2019-01-25T18:18:18.785Z,63.42
2019-01-25T18:20:46.428Z,64.00
2019-01-25T18:23:14.075Z,63.51
2019-01-25T18:25:41.720Z,61.87
2019-01-25T18:28:09.637Z,62.51
2019-01-25T18:30:37.455Z,61.47
2019-01-25T18:33:05.106Z,61.37
2019-01-25T18:35:33.039Z,61.13
2019-01-25T18:38:01.016Z,60.04
2019-01-25T18:40:28.653Z,60.45
2019-01-25T18:42:56.640Z,60.15
2019-01-25T18:45:24.610Z,60.09
2019-01-25T18:47:52.254Z,60.21
2019-01-25T18:50:20.237Z,60.06
2019-01-25T18:52:48.209Z,59.68
2019-01-25T18:55:15.852Z,60.32
2019-01-25T18:57:43.489Z,60.27
2019-01-25T19:00:11.417Z,60.34
2019-01-25T19:02:39.367Z,59.81
2019-01-25T19:05:07.014Z,59.24
2019-01-25T19:07:34.646Z,60.32
2019-01-25T19:10:02.560Z,60.32
2019-01-25T19:12:30.534Z,60.63
2019-01-25T19:15:04.271Z,61.03
2019-01-25T19:17:27.832Z,59.78
2019-01-25T19:19:55.473Z,59.79
2019-01-25T19:22:23.452Z,59.45
2019-01-25T19:24:51.406Z,59.82
2019-01-25T19:27:19.037Z,60.55
2019-01-25T19:29:46.688Z,59.85
2019-01-25T19:32:14.600Z,60.10
2019-01-25T19:34:42.247Z,59.96
2019-01-25T19:37:09.872Z,60.28
2019-01-25T19:39:37.784Z,60.28
2019-01-25T19:42:05.419Z,60.51
2019-01-25T19:44:33.148Z,60.74
2019-01-25T19:47:00.772Z,60.77
2019-01-25T19:49:28.417Z,59.99
2019-01-25T19:51:56.066Z,61.05
2019-01-25T19:54:23.984Z,61.15
2019-01-25T19:56:52.137Z,61.38
2019-01-25T19:59:19.779Z,61.11
2019-01-25T20:01:47.415Z,61.20
2019-01-25T20:04:15.045Z,61.33
2019-01-25T20:06:43.004Z,61.73
2019-01-25T20:09:10.963Z,61.52
2019-01-25T20:11:38.934Z,61.73
2019-01-25T20:14:06.567Z,61.97
2019-01-25T20:16:34.194Z,61.64
2019-01-25T20:19:01.846Z,61.83
2019-01-25T20:21:29.790Z,62.58
2019-01-25T20:23:57.430Z,63.13
2019-01-25T20:26:25.450Z,62.38
2019-01-25T20:28:53.064Z,61.75
2019-01-25T20:31:21.048Z,62.13
2019-01-25T20:33:49.020Z,62.15
2019-01-25T20:36:16.991Z,61.72
2019-01-25T20:38:44.635Z,61.33
2019-01-25T20:41:12.264Z,61.21
2019-01-25T20:43:39.912Z,62.29
2019-01-25T20:46:07.864Z,61.90
2019-01-25T20:48:35.816Z,61.52
2019-01-25T20:51:03.785Z,61.69
2019-01-25T20:53:31.765Z,61.45
2019-01-25T20:55:59.401Z,61.61
2019-01-25T20:58:27.385Z,61.24
2019-01-25T21:00:55.080Z,62.20
2019-01-25T21:03:22.762Z,61.37
2019-01-25T21:05:50.678Z,61.55
2019-01-25T21:08:18.310Z,61.37
2019-01-25T21:10:46.207Z,61.31
2019-01-25T21:13:14.178Z,61.08
2019-01-25T21:15:42.141Z,61.25
2019-01-25T21:18:10.184Z,60.86
2019-01-25T21:20:38.089Z,61.00
2019-01-25T21:23:06.055Z,60.95
2019-01-25T21:25:34.031Z,61.07
2019-01-25T21:28:01.662Z,60.75
2019-01-25T21:30:29.329Z,61.17
2019-01-25T21:32:57.230Z,61.01
2019-01-25T21:35:24.872Z,60.81
2019-01-25T21:37:52.856Z,61.03
2019-01-25T21:40:20.820Z,60.99
2019-01-25T21:42:49.280Z,60.84
2019-01-25T21:45:17.271Z,60.90
2019-01-25T21:47:44.905Z,60.94
2019-01-25T21:50:12.808Z,61.09
2019-01-25T21:52:40.429Z,60.68
2019-01-25T21:55:08.072Z,60.93
2019-01-25T21:57:35.701Z,61.10
2019-01-25T22:00:03.677Z,60.93
2019-01-25T22:02:31.633Z,61.02
2019-01-25T22:04:59.269Z,60.81
2019-01-25T22:07:27.158Z,61.21
2019-01-25T22:09:54.790Z,61.16
2019-01-25T22:12:22.688Z,61.12
2019-01-25T22:14:50.656Z,61.50
2019-01-25T22:17:18.355Z,61.45
2019-01-25T22:19:45.994Z,61.21
2019-01-25T22:22:13.950Z,61.57
2019-01-25T22:24:41.918Z,61.71
2019-01-25T22:27:09.900Z,61.64
2019-01-25T22:29:37.859Z,61.91
2019-01-25T22:32:05.826Z,62.26
2019-01-25T22:34:33.808Z,62.03
2019-01-25T22:37:01.765Z,62.29
2019-01-25T22:39:29.739Z,62.46
2019-01-25T22:41:57.379Z,62.61
2019-01-25T22:44:25.371Z,62.26
2019-01-25T22:46:53.339Z,62.42
2019-01-25T22:49:20.961Z,62.40
2019-01-25T22:51:48.873Z,62.75
2019-01-25T22:54:16.839Z,62.51
2019-01-25T22:56:44.811Z,62.52
2019-01-25T22:59:12.775Z,62.50
2019-01-25T23:01:40.746Z,62.84
2019-01-25T23:04:08.716Z,63.01
2019-01-25T23:06:36.682Z,62.98
2019-01-25T23:09:05.739Z,62.75
2019-01-25T23:11:33.646Z,62.94
2019-01-25T23:14:01.617Z,63.11
2019-01-25T23:16:29.588Z,63.39
2019-01-25T23:18:57.558Z,63.47
2019-01-25T23:21:25.524Z,63.30
2019-01-25T23:23:53.144Z,63.50
2019-01-25T23:26:20.775Z,63.71
2019-01-25T23:28:48.714Z,63.82
2019-01-25T23:31:16.683Z,63.70
2019-01-25T23:33:44.671Z,64.08
2019-01-25T23:36:12.627Z,64.25
2019-01-25T23:38:40.255Z,64.27
2019-01-25T23:41:08.157Z,64.17
2019-01-25T23:43:36.126Z,64.30
2019-01-25T23:46:03.761Z,64.43
2019-01-25T23:48:31.675Z,64.73
2019-01-25T23:50:59.309Z,64.78
2019-01-25T23:53:26.934Z,65.05
2019-01-25T23:55:54.847Z,65.83
2019-01-25T23:58:22.815Z,65.63
